Time,TemperatureF,DewpointF,PressureIn,WindDirection,WindDirectionDegrees,WindSpeedMPH,WindSpeedGustMPH,Humidity,HourlyPrecipIn,Conditions,Clouds,dailyrainin,SolarRadiationWatts/m^2,SoftwareType,DateUTC
2013-07-27 00:04:00,66.5,56.0,30.02,NE,45,2.0,6.0,69,0.00,,,0.12,0,weatherlink.com 1.10,2013-07-27 05:04:00,
2013-07-27 00:19:00,66.0,56.0,30.03,NNW,348,0.0,5.0,70,0.00,,,0.12,0,weatherlink.com 1.10,2013-07-27 05:19:00,
2013-07-27 00:35:00,65.3,56.0,30.03,NNE,29,2.0,4.0,72,0.00,,,0.12,0,weatherlink.com 1.10,2013-07-27 05:35:00,
2013-07-27 00:49:00,65.1,56.0,30.03,NE,40,0.0,4.0,73,0.00,,,0.12,0,weatherlink.com 1.10,2013-07-27 05:49:00,
2013-07-27 01:04:00,64.4,56.0,30.04,NE,40,0.0,2.0,74,0.00,,,0.12,0,weatherlink.com 1.10,2013-07-27 06:04:00,
2013-07-27 01:19:00,63.9,56.0,30.04,NE,40,0.0,1.0,75,0.00,,,0.12,0,weatherlink.com 1.10,2013-07-27 06:19:00,
2013-07-27 01:34:00,63.4,56.0,30.04,NE,40,0.0,2.0,76,0.00,,,0.12,0,weatherlink.com 1.10,2013-07-27 06:34:00,
2013-07-27 01:49:00,62.8,56.0,30.04,NE,40,1.0,1.0,78,0.00,,,0.12,0,weatherlink.com 1.10,2013-07-27 06:49:00,
2013-07-27 02:04:00,62.0,55.0,30.03,NE,40,0.0,0.0,78,0.00,,,0.12,0,weatherlink.com 1.10,2013-07-27 07:04:00,
2013-07-27 02:19:00,61.6,55.0,30.03,NE,40,0.0,1.0,80,0.00,,,0.12,0,weatherlink.com 1.10,2013-07-27 07:19:00,
2013-07-27 02:34:00,61.1,55.0,30.03,NE,40,0.0,0.0,81,0.00,,,0.12,0,weatherlink.com 1.10,2013-07-27 07:34:00,
2013-07-27 02:49:00,60.9,55.0,30.04,NE,40,0.0,1.0,82,0.00,,,0.12,0,weatherlink.com 1.10,2013-07-27 07:49:00,
2013-07-27 03:04:00,60.5,55.0,30.04,NE,40,0.0,1.0,83,0.00,,,0.00,0,weatherlink.com 1.10,2013-07-27 08:04:00,
2013-07-27 03:20:00,59.9,55.0,30.03,NE,40,0.0,1.0,84,0.00,,,0.00,0,weatherlink.com 1.10,2013-07-27 08:20:00,
2013-07-27 03:35:00,59.2,55.0,30.03,NE,40,0.0,1.0,86,0.00,,,0.00,0,weatherlink.com 1.10,2013-07-27 08:35:00,
2013-07-27 03:50:00,58.7,55.0,30.03,NE,40,0.0,1.0,88,0.00,,,0.00,0,weatherlink.com 1.10,2013-07-27 08:50:00,
2013-07-27 04:05:00,58.4,55.0,30.03,NE,40,0.0,0.0,88,0.00,,,0.00,0,weatherlink.com 1.10,2013-07-27 09:05:00,
2013-07-27 04:20:00,57.9,55.0,30.03,NE,40,0.0,1.0,89,0.00,,,0.00,0,weatherlink.com 1.10,2013-07-27 09:20:00,
2013-07-27 04:35:00,57.6,54.0,30.02,NE,40,0.0,0.0,88,0.00,,,0.00,0,weatherlink.com 1.10,2013-07-27 09:35:00,
2013-07-27 04:50:00,56.9,54.0,30.02,NE,40,0.0,0.0,90,0.00,,,0.00,0,weatherlink.com 1.10,2013-07-27 09:50:00,
2013-07-27 05:05:00,57.2,54.0,30.02,NE,40,0.0,0.0,89,0.00,,,0.00,0,weatherlink.com 1.10,2013-07-27 10:05:00,
2013-07-27 05:20:00,57.1,54.0,30.01,NE,40,0.0,0.0,89,0.00,,,0.00,0,weatherlink.com 1.10,2013-07-27 10:20:00,
2013-07-27 05:35:00,57.0,54.0,30.03,NE,40,0.0,1.0,90,0.00,,,0.00,0,weatherlink.com 1.10,2013-07-27 10:35:00,
2013-07-27 05:50:00,56.7,54.0,30.03,NE,40,0.0,1.0,90,0.00,,,0.00,0,weatherlink.com 1.10,2013-07-27 10:50:00,
2013-07-27 06:05:00,56.5,54.0,30.04,NE,40,1.0,1.0,91,0.00,,,0.00,0,weatherlink.com 1.10,2013-07-27 11:05:00,
2013-07-27 06:20:00,56.3,54.0,30.04,NE,40,0.0,2.0,91,0.00,,,0.00,5,weatherlink.com 1.10,2013-07-27 11:20:00,
2013-07-27 06:35:00,56.3,54.0,30.05,NE,40,0.0,1.0,91,0.00,,,0.00,14,weatherlink.com 1.10,2013-07-27 11:35:00,
2013-07-27 06:50:00,57.6,55.0,30.05,NE,40,1.0,2.0,90,0.00,,,0.00,35,weatherlink.com 1.10,2013-07-27 11:50:00,
2013-07-27 07:05:00,58.6,55.0,30.05,NE,40,0.0,2.0,87,0.00,,,0.00,58,weatherlink.com 1.10,2013-07-27 12:05:00,
2013-07-27 07:20:00,59.4,56.0,30.05,NE,40,1.0,3.0,88,0.00,,,0.00,109,weatherlink.com 1.10,2013-07-27 12:20:00,
2013-07-27 07:35:00,61.5,57.0,30.06,NE,40,2.0,3.0,84,0.00,,,0.00,183,weatherlink.com 1.10,2013-07-27 12:35:00,
2013-07-27 07:50:00,62.9,57.0,30.07,NE,38,0.0,3.0,80,0.00,,,0.00,137,weatherlink.com 1.10,2013-07-27 12:50:00,
2013-07-27 08:05:00,62.3,57.0,30.08,North,10,0.0,4.0,82,0.00,,,0.00,176,weatherlink.com 1.10,2013-07-27 13:05:00,
2013-07-27 08:20:00,62.7,58.0,30.07,North,360,0.0,2.0,83,0.00,,,0.00,287,weatherlink.com 1.10,2013-07-27 13:20:00,
2013-07-27 08:35:00,65.0,58.0,30.08,North,360,0.0,3.0,77,0.00,,,0.00,343,weatherlink.com 1.10,2013-07-27 13:35:00,
2013-07-27 08:50:00,65.7,57.0,30.08,NNE,16,0.0,3.0,73,0.00,,,0.00,195,weatherlink.com 1.10,2013-07-27 13:50:00,
2013-07-27 09:05:00,66.4,58.0,30.09,NNE,15,0.0,3.0,74,0.00,,,0.00,582,weatherlink.com 1.10,2013-07-27 14:05:00,
2013-07-27 09:20:00,66.5,56.0,30.07,ENE,70,0.0,4.0,70,0.00,,,0.00,288,weatherlink.com 1.10,2013-07-27 14:20:00,
2013-07-27 09:35:00,68.1,58.0,30.07,NE,50,0.0,3.0,69,0.00,,,0.00,526,weatherlink.com 1.10,2013-07-27 14:35:00,
2013-07-27 09:51:00,68.8,56.0,30.06,NE,49,3.0,6.0,65,0.00,,,0.00,327,weatherlink.com 1.10,2013-07-27 14:51:00,
2013-07-27 10:06:00,70.4,59.0,30.06,NE,36,0.0,6.0,67,0.00,,,0.00,578,weatherlink.com 1.10,2013-07-27 15:06:00,
2013-07-27 10:21:00,71.5,57.0,30.06,North,9,2.0,7.0,60,0.00,,,0.00,691,weatherlink.com 1.10,2013-07-27 15:21:00,
2013-07-27 10:36:00,71.1,55.0,30.06,NW,304,0.0,7.0,57,0.00,,,0.00,323,weatherlink.com 1.10,2013-07-27 15:36:00,
2013-07-27 10:51:00,69.5,55.0,30.06,NW,310,0.0,4.0,61,0.00,,,0.00,257,weatherlink.com 1.10,2013-07-27 15:51:00,
2013-07-27 11:06:00,69.6,54.0,30.05,NE,38,0.0,4.0,59,0.00,,,0.00,330,weatherlink.com 1.10,2013-07-27 16:06:00,
2013-07-27 11:21:00,71.2,54.0,30.05,NNE,28,3.0,6.0,54,0.00,,,0.00,526,weatherlink.com 1.10,2013-07-27 16:21:00,
2013-07-27 11:36:00,70.6,52.0,30.06,North,9,0.0,5.0,53,0.00,,,0.00,151,weatherlink.com 1.10,2013-07-27 16:36:00,
2013-07-27 11:51:00,69.9,53.0,30.05,North,5,1.0,4.0,55,0.00,,,0.00,246,weatherlink.com 1.10,2013-07-27 16:51:00,
2013-07-27 12:06:00,70.6,54.0,30.04,North,5,0.0,2.0,55,0.00,,,0.00,397,weatherlink.com 1.10,2013-07-27 17:06:00,
2013-07-27 12:21:00,71.6,54.0,30.03,North,5,0.0,4.0,54,0.00,,,0.00,661,weatherlink.com 1.10,2013-07-27 17:21:00,
2013-07-27 12:36:00,73.5,58.0,30.03,NNE,22,2.0,7.0,58,0.00,,,0.00,889,weatherlink.com 1.10,2013-07-27 17:36:00,
2013-07-27 12:51:00,73.4,56.0,30.02,NE,44,2.0,7.0,54,0.00,,,0.00,529,weatherlink.com 1.10,2013-07-27 17:51:00,
2013-07-27 13:21:00,75.8,58.0,30.02,NE,40,1.0,10.0,55,0.00,,,0.00,1037,weatherlink.com 1.10,2013-07-27 18:21:00,
2013-07-27 13:36:00,75.9,53.0,30.02,WNW,302,4.0,9.0,45,0.00,,,0.00,445,weatherlink.com 1.10,2013-07-27 18:36:00,
2013-07-27 13:51:00,76.3,57.0,30.01,NW,315,1.0,6.0,51,0.00,,,0.00,1136,weatherlink.com 1.10,2013-07-27 18:51:00,
2013-07-27 14:06:00,76.6,55.0,30.01,NW,313,0.0,6.0,47,0.00,,,0.00,893,weatherlink.com 1.10,2013-07-27 19:06:00,
2013-07-27 14:21:00,77.8,53.0,30.00,NW,311,0.0,9.0,43,0.00,,,0.00,886,weatherlink.com 1.10,2013-07-27 19:21:00,
2013-07-27 14:36:00,78.2,53.0,30.00,ENE,59,3.0,13.0,42,0.00,,,0.00,884,weatherlink.com 1.10,2013-07-27 19:36:00,
2013-07-27 14:51:00,78.0,52.0,30.00,West,280,7.0,11.0,41,0.00,,,0.00,847,weatherlink.com 1.10,2013-07-27 19:51:00,
2013-07-27 15:06:00,78.0,51.0,29.99,ENE,62,3.0,7.0,39,0.00,,,0.00,846,weatherlink.com 1.10,2013-07-27 20:06:00,
2013-07-27 15:21:00,78.0,54.0,29.98,NNE,16,1.0,8.0,43,0.00,,,0.00,796,weatherlink.com 1.10,2013-07-27 20:21:00,
2013-07-27 15:51:00,79.3,54.0,29.98,WSW,252,4.0,6.0,41,0.00,,,0.00,824,weatherlink.com 1.10,2013-07-27 20:51:00,
2013-07-27 16:06:00,77.6,52.0,29.98,NNW,327,0.0,7.0,41,0.00,,,0.00,260,weatherlink.com 1.10,2013-07-27 21:06:00,
2013-07-27 16:21:00,77.4,53.0,29.98,WNW,285,3.0,4.0,43,0.00,,,0.00,399,weatherlink.com 1.10,2013-07-27 21:21:00,
2013-07-27 16:36:00,77.8,53.0,29.97,West,264,0.0,5.0,43,0.00,,,0.00,272,weatherlink.com 1.10,2013-07-27 21:36:00,
2013-07-27 16:51:00,76.5,54.0,29.97,NNE,27,2.0,5.0,45,0.00,,,0.00,371,weatherlink.com 1.10,2013-07-27 21:51:00,
2013-07-27 17:06:00,75.7,53.0,29.98,North,5,3.0,7.0,45,0.00,,,0.00,260,weatherlink.com 1.10,2013-07-27 22:06:00,
2013-07-27 17:21:00,75.6,53.0,29.98,NNW,328,2.0,6.0,46,0.00,,,0.00,172,weatherlink.com 1.10,2013-07-27 22:21:00,
2013-07-27 17:36:00,75.3,54.0,29.97,ENE,69,3.0,6.0,47,0.00,,,0.00,290,weatherlink.com 1.10,2013-07-27 22:36:00,
2013-07-27 17:51:00,75.5,52.0,29.97,NE,47,0.0,5.0,44,0.00,,,0.00,230,weatherlink.com 1.10,2013-07-27 22:51:00,
2013-07-27 18:22:00,75.0,58.0,29.96,North,360,2.0,5.0,55,0.00,,,0.00,396,weatherlink.com 1.10,2013-07-27 23:22:00,
2013-07-27 18:36:00,74.6,58.0,29.96,NNW,337,3.0,6.0,56,0.00,,,0.00,343,weatherlink.com 1.10,2013-07-27 23:36:00,
2013-07-27 18:52:00,74.4,60.0,29.95,NW,319,0.0,6.0,61,0.00,,,0.00,279,weatherlink.com 1.10,2013-07-27 23:52:00,
2013-07-27 19:06:00,73.3,59.0,29.95,WNW,303,1.0,6.0,61,0.00,,,0.00,248,weatherlink.com 1.10,2013-07-28 00:06:00,
2013-07-27 19:21:00,72.9,59.0,29.96,WNW,293,3.0,6.0,62,0.00,,,0.00,190,weatherlink.com 1.10,2013-07-28 00:21:00,
2013-07-27 19:37:00,72.1,59.0,29.97,WNW,293,3.0,4.0,64,0.00,,,0.00,135,weatherlink.com 1.10,2013-07-28 00:37:00,
2013-07-27 19:51:00,71.4,59.0,29.96,WNW,293,0.0,4.0,65,0.00,,,0.00,86,weatherlink.com 1.10,2013-07-28 00:51:00,
2013-07-27 20:06:00,70.4,58.0,29.96,WNW,293,0.0,3.0,66,0.00,,,0.00,21,weatherlink.com 1.10,2013-07-28 01:06:00,
2013-07-27 20:36:00,68.6,54.0,29.95,WNW,293,0.0,2.0,59,0.00,,,0.00,0,weatherlink.com 1.10,2013-07-28 01:36:00,
2013-07-27 20:51:00,68.1,53.0,29.97,WNW,293,2.0,2.0,59,0.00,,,0.00,0,weatherlink.com 1.10,2013-07-28 01:51:00,
2013-07-27 21:07:00,67.2,56.0,29.97,WNW,293,0.0,2.0,68,0.00,,,0.00,0,weatherlink.com 1.10,2013-07-28 02:07:00,
2013-07-27 21:21:00,66.5,55.0,29.98,WNW,293,0.0,4.0,66,0.00,,,0.00,0,weatherlink.com 1.10,2013-07-28 02:21:00,
2013-07-27 21:37:00,65.9,54.0,29.99,WNW,293,0.0,1.0,65,0.00,,,0.00,0,weatherlink.com 1.10,2013-07-28 02:37:00,
2013-07-27 22:07:00,64.2,58.0,29.99,WNW,293,0.0,4.0,80,0.00,,,0.00,0,weatherlink.com 1.10,2013-07-28 03:07:00,
2013-07-27 22:22:00,63.5,58.0,30.00,WNW,293,0.0,3.0,82,0.00,,,0.00,0,weatherlink.com 1.10,2013-07-28 03:22:00,
2013-07-27 22:37:00,63.1,58.0,30.00,WNW,293,0.0,2.0,84,0.00,,,0.00,0,weatherlink.com 1.10,2013-07-28 03:37:00,
2013-07-27 22:52:00,62.5,58.0,29.99,WNW,293,0.0,2.0,85,0.00,,,0.00,0,weatherlink.com 1.10,2013-07-28 03:52:00,
2013-07-27 23:07:00,62.4,58.0,30.00,WNW,293,0.0,2.0,86,0.00,,,0.00,0,weatherlink.com 1.10,2013-07-28 04:07:00,
2013-07-27 23:22:00,61.9,58.0,30.00,WNW,293,0.0,2.0,87,0.00,,,0.00,0,weatherlink.com 1.10,2013-07-28 04:22:00,
2013-07-27 23:37:00,61.5,58.0,30.00,WNW,293,0.0,0.0,87,0.00,,,0.00,0,weatherlink.com 1.10,2013-07-28 04:37:00,
2013-07-27 23:52:00,60.9,58.0,30.00,WNW,293,0.0,0.0,89,0.00,,,0.00,0,weatherlink.com 1.10,2013-07-28 04:52:00,